Terminal Aerodrome Forecast
Issued by NWS Kansas City/Pleasant Hill, MO

Home | Current Version | Previous Version | Text Only | Print | Product List | Glossary On
Versions: 1 2 3 4 5 6 7 8 9 10 11 12 13 14 15 16 17 18 19 20 21 22
306
FTUS43 KEAX 270520
TAFMCI
TAF
KMCI 270520Z 2706/2806 05009KT 5SM -RA VCTS BKN040CB OVC070
     FM270900 17010KT P6SM VCSH BKN035
     FM271400 21014G22KT P6SM SCT030=

USA.gov is the U.S. government's official web portal to all federal, state and local government web resources and services.